createdAt,value
2023-02-01T00:00:40.528Z,92.28
2023-02-01T00:03:09.585Z,92.29
2023-02-01T00:05:36.795Z,91.55
2023-02-01T00:08:04.571Z,92.19
2023-02-01T00:10:33.314Z,92.04
2023-02-01T00:13:00.996Z,91.47
2023-02-01T00:15:28.579Z,91.49
2023-02-01T00:17:56.095Z,91.35
2023-02-01T00:20:23.895Z,91.62
2023-02-01T00:22:51.133Z,91.94
2023-02-01T00:25:18.588Z,92.06
2023-02-01T00:27:51.795Z,92.07
2023-02-01T00:30:20.043Z,92.10
2023-02-01T00:32:47.773Z,91.15
2023-02-01T00:35:15.115Z,91.84
2023-02-01T00:37:42.412Z,91.05
2023-02-01T00:40:11.106Z,91.24
2023-02-01T00:42:40.114Z,91.80
2023-02-01T00:45:10.209Z,91.16
2023-02-01T00:47:37.503Z,91.66
2023-02-01T00:50:05.427Z,91.21
2023-02-01T00:52:33.023Z,92.00
2023-02-01T00:55:00.800Z,91.42
2023-02-01T00:57:28.205Z,90.98
2023-02-01T00:59:55.616Z,91.13
2023-02-01T01:02:24.555Z,91.88
2023-02-01T01:04:52.020Z,91.77
2023-02-01T01:07:19.561Z,91.25
2023-02-01T01:09:47.649Z,91.79
2023-02-01T01:12:14.873Z,91.08
2023-02-01T01:14:42.256Z,91.75
2023-02-01T01:17:09.441Z,90.95
2023-02-01T01:19:38.653Z,91.30
2023-02-01T01:22:06.034Z,91.49
2023-02-01T01:24:33.438Z,90.83
2023-02-01T01:27:00.594Z,91.39
2023-02-01T01:29:28.153Z,91.66
2023-02-01T01:31:55.525Z,90.95
2023-02-01T01:34:25.792Z,91.30
2023-02-01T01:36:54.521Z,90.84
2023-02-01T01:39:21.882Z,91.50
2023-02-01T01:41:49.361Z,91.44
2023-02-01T01:44:59.700Z,91.07
2023-02-01T01:47:32.936Z,91.22
2023-02-01T01:50:01.297Z,91.16
2023-02-01T01:52:30.653Z,90.94
2023-02-01T01:55:00.244Z,90.74
2023-02-01T01:57:32.750Z,90.49
2023-02-01T02:00:06.698Z,91.31
2023-02-01T02:02:42.971Z,90.75
2023-02-01T02:05:11.648Z,91.43
2023-02-01T02:07:43.321Z,91.33
2023-02-01T02:10:13.919Z,90.91
2023-02-01T02:12:43.038Z,91.37
2023-02-01T02:15:13.047Z,90.38
2023-02-01T02:17:59.307Z,90.53
2023-02-01T02:20:46.763Z,90.82
2023-02-01T02:23:46.157Z,91.44
2023-02-01T02:26:28.298Z,90.60
2023-02-01T02:29:45.744Z,91.19
2023-02-01T02:32:38.792Z,91.34
2023-02-01T02:35:17.008Z,91.15
2023-02-01T02:37:54.028Z,91.14
2023-02-01T02:40:29.010Z,91.07
2023-02-01T02:43:25.233Z,90.84
2023-02-01T02:46:14.748Z,91.03
2023-02-01T02:48:48.696Z,90.88
2023-02-01T02:51:41.888Z,91.14
2023-02-01T02:54:33.574Z,91.75
2023-02-01T02:57:23.518Z,91.21
2023-02-01T03:00:10.352Z,91.66
2023-02-01T03:02:57.622Z,91.82
2023-02-01T03:05:24.915Z,91.83
2023-02-01T03:08:02.680Z,91.42
2023-02-01T03:10:37.537Z,91.71
2023-02-01T03:13:09.079Z,91.46
2023-02-01T03:15:41.199Z,92.01
2023-02-01T03:18:15.371Z,91.09
2023-02-01T03:20:46.841Z,91.71
2023-02-01T03:23:18.859Z,91.80
2023-02-01T03:25:50.172Z,91.85
2023-02-01T03:28:22.548Z,91.68
2023-02-01T03:30:51.788Z,91.56
2023-02-01T03:33:22.793Z,92.21
2023-02-01T03:35:58.003Z,92.27
2023-02-01T03:38:32.494Z,91.96
2023-02-01T03:41:09.795Z,91.94
2023-02-01T03:43:45.045Z,92.12
2023-02-01T03:46:19.847Z,91.45
2023-02-01T03:48:49.068Z,91.85
2023-02-01T03:51:19.117Z,92.16
2023-02-01T03:53:49.884Z,92.16
2023-02-01T03:56:21.441Z,91.70
2023-02-01T03:59:00.237Z,91.87
2023-02-01T04:01:32.702Z,91.79
2023-02-01T04:04:00.314Z,91.77
2023-02-01T04:06:27.782Z,92.05
2023-02-01T04:09:02.090Z,91.84
2023-02-01T04:11:30.217Z,91.63
2023-02-01T04:13:57.509Z,92.05
2023-02-01T04:16:24.990Z,91.56
2023-02-01T04:21:18.376Z,91.81
2023-02-01T04:23:45.838Z,91.18
2023-02-01T04:26:14.783Z,91.99
2023-02-01T04:28:42.248Z,91.25
2023-02-01T04:31:09.802Z,91.86
2023-02-01T04:33:37.260Z,91.49
2023-02-01T04:36:05.032Z,91.46
2023-02-01T04:38:33.368Z,91.05
2023-02-01T04:41:00.791Z,91.22
2023-02-01T04:43:29.643Z,91.42
2023-02-01T04:45:57.131Z,91.23
2023-02-01T04:48:25.125Z,91.29
2023-02-01T04:50:52.576Z,91.23
2023-02-01T04:53:20.007Z,91.29
2023-02-01T04:55:50.360Z,91.80
2023-02-01T04:58:17.784Z,92.12
2023-02-01T05:00:46.608Z,91.71
2023-02-01T05:03:13.873Z,92.03
2023-02-01T05:05:41.247Z,92.01
2023-02-01T05:08:08.761Z,92.21
2023-02-01T05:10:36.182Z,91.71
2023-02-01T05:13:21.951Z,91.98
2023-02-01T05:15:51.681Z,91.93
2023-02-01T05:18:19.194Z,92.17
2023-02-01T05:20:46.488Z,91.56
2023-02-01T05:23:13.785Z,91.91
2023-02-01T05:25:41.026Z,92.10
2023-02-01T05:28:08.592Z,91.58
2023-02-01T05:30:41.196Z,91.39
2023-02-01T05:33:10.903Z,91.67
2023-02-01T05:35:38.276Z,91.88
2023-02-01T05:38:05.703Z,91.82
2023-02-01T05:40:32.941Z,92.56
2023-02-01T05:43:00.393Z,92.47
2023-02-01T05:45:27.656Z,92.23
2023-02-01T05:47:54.904Z,92.66
2023-02-01T05:50:23.791Z,92.55
2023-02-01T05:52:57.570Z,91.89
2023-02-01T05:55:24.892Z,92.31
2023-02-01T05:57:52.098Z,92.59
2023-02-01T06:00:22.320Z,92.61
2023-02-01T06:02:49.924Z,91.76
2023-02-01T06:05:17.391Z,92.44
2023-02-01T06:07:45.955Z,91.82
2023-02-01T06:10:13.607Z,92.30
2023-02-01T06:12:41.033Z,91.86
2023-02-01T06:15:09.361Z,92.72
2023-02-01T06:17:36.583Z,92.55
2023-02-01T06:20:04.597Z,92.57
2023-02-01T06:22:32.203Z,92.04
2023-02-01T06:25:00.946Z,92.32
2023-02-01T06:27:28.252Z,92.04
2023-02-01T06:29:56.316Z,91.61
2023-02-01T06:32:24.728Z,92.34
2023-02-01T06:34:53.645Z,92.47
2023-02-01T06:37:21.258Z,91.56
2023-02-01T06:39:49.147Z,91.54
2023-02-01T06:42:18.141Z,92.13
2023-02-01T06:44:45.409Z,92.08
2023-02-01T06:47:12.759Z,91.36
2023-02-01T06:49:41.471Z,91.77
2023-02-01T06:52:08.777Z,91.31
2023-02-01T06:54:38.454Z,91.40
2023-02-01T06:57:06.043Z,91.31
2023-02-01T06:59:34.934Z,91.47
2023-02-01T07:02:02.363Z,91.90
2023-02-01T07:04:29.861Z,91.87
2023-02-01T07:06:57.166Z,91.23
2023-02-01T07:09:24.521Z,91.26
2023-02-01T07:11:52.123Z,91.54
2023-02-01T07:14:19.572Z,91.78
2023-02-01T07:16:48.439Z,91.44
2023-02-01T07:19:15.909Z,91.31
2023-02-01T07:21:43.242Z,91.76
2023-02-01T07:24:10.571Z,91.87
2023-02-01T07:26:37.800Z,91.17
2023-02-01T07:29:05.183Z,91.31
2023-02-01T07:31:32.613Z,91.37
2023-02-01T07:34:01.975Z,91.64
2023-02-01T07:36:29.576Z,91.58
2023-02-01T07:38:57.120Z,91.77
2023-02-01T07:41:24.607Z,91.43
2023-02-01T07:43:53.866Z,90.77
2023-02-01T07:46:21.781Z,91.12
2023-02-01T07:48:49.148Z,90.90
2023-02-01T07:51:18.476Z,90.76
2023-02-01T07:53:46.420Z,91.22
2023-02-01T07:56:19.092Z,91.03
2023-02-01T07:58:49.235Z,90.39
2023-02-01T08:01:25.712Z,91.31
2023-02-01T08:03:54.887Z,91.06
2023-02-01T08:06:24.477Z,90.24
2023-02-01T08:08:53.099Z,91.09
2023-02-01T08:11:22.652Z,90.31
2023-02-01T08:13:50.418Z,89.77
2023-02-01T08:16:19.491Z,90.15
2023-02-01T08:18:47.568Z,90.02
2023-02-01T08:21:16.942Z,89.86
2023-02-01T08:23:46.250Z,90.44
2023-02-01T08:26:15.869Z,89.80
2023-02-01T08:28:45.293Z,89.97
2023-02-01T08:31:15.906Z,89.92
2023-02-01T08:33:44.642Z,89.85
2023-02-01T08:36:12.592Z,89.81
2023-02-01T08:38:40.788Z,89.52
2023-02-01T08:41:10.831Z,89.61
2023-02-01T08:43:38.692Z,89.64
2023-02-01T08:46:06.763Z,88.98
2023-02-01T08:48:35.306Z,89.35
2023-02-01T08:51:03.930Z,89.65
2023-02-01T08:53:31.334Z,89.28
2023-02-01T08:55:58.654Z,88.97
2023-02-01T08:58:27.743Z,89.57
2023-02-01T09:00:54.955Z,89.47
2023-02-01T09:03:22.381Z,88.74
2023-02-01T09:05:50.219Z,89.55
2023-02-01T09:08:19.933Z,89.16
2023-02-01T09:10:47.284Z,89.56
2023-02-01T09:13:14.840Z,89.05
2023-02-01T09:15:43.696Z,89.49
2023-02-01T09:18:10.964Z,89.13
2023-02-01T09:20:38.559Z,89.75
2023-02-01T09:23:07.736Z,89.48
2023-02-01T09:25:35.226Z,89.24
2023-02-01T09:28:02.668Z,88.75
2023-02-01T09:30:31.350Z,89.10
2023-02-01T09:33:00.158Z,89.15
2023-02-01T09:35:28.065Z,88.93
2023-02-01T09:37:56.271Z,88.93
2023-02-01T09:40:24.258Z,89.48
2023-02-01T09:43:12.583Z,88.93
2023-02-01T09:45:50.561Z,89.15
2023-02-01T09:48:22.784Z,89.66
2023-02-01T09:50:54.353Z,89.02
2023-02-01T09:53:28.861Z,89.77
2023-02-01T09:56:00.996Z,89.13
2023-02-01T09:58:35.091Z,89.35
2023-02-01T10:01:05.204Z,90.37
2023-02-01T10:03:37.069Z,89.70
2023-02-01T10:06:34.525Z,89.82
2023-02-01T10:09:31.939Z,90.06
2023-02-01T10:12:19.838Z,90.20
2023-02-01T10:14:59.519Z,89.60
2023-02-01T10:17:44.094Z,89.48
2023-02-01T10:20:25.543Z,90.39
2023-02-01T10:23:31.595Z,90.07
2023-02-01T10:25:56.763Z,90.28
2023-02-01T10:28:27.071Z,90.01
2023-02-01T10:30:58.947Z,90.46
2023-02-01T10:33:28.760Z,89.95
2023-02-01T10:36:09.851Z,89.72
2023-02-01T10:38:37.796Z,89.93
2023-02-01T10:41:13.338Z,89.83
2023-02-01T10:43:41.179Z,89.71
2023-02-01T10:46:09.323Z,89.91
2023-02-01T10:48:37.684Z,90.93
2023-02-01T10:51:13.437Z,90.04
2023-02-01T10:53:48.595Z,90.46
2023-02-01T10:56:15.857Z,90.79
2023-02-01T10:58:48.788Z,89.91
2023-02-01T11:01:20.537Z,90.97
2023-02-01T11:03:54.962Z,90.74
2023-02-01T11:06:29.280Z,89.85
2023-02-01T11:08:58.193Z,90.21
2023-02-01T11:11:26.424Z,90.63
2023-02-01T11:13:57.073Z,89.86
2023-02-01T11:16:31.667Z,90.34
2023-02-01T11:18:59.858Z,89.69
2023-02-01T11:21:29.102Z,89.50
2023-02-01T11:24:01.905Z,89.76
2023-02-01T11:26:30.725Z,89.52
2023-02-01T11:29:02.612Z,89.99
2023-02-01T11:31:30.630Z,89.76
2023-02-01T11:34:01.918Z,89.73
2023-02-01T11:36:33.852Z,88.98
2023-02-01T11:39:24.153Z,89.58
2023-02-01T11:42:01.985Z,89.53
2023-02-01T11:44:34.149Z,89.09
2023-02-01T11:47:23.585Z,89.08
2023-02-01T11:49:53.320Z,88.22
2023-02-01T11:52:35.088Z,88.31
2023-02-01T11:55:27.615Z,88.19
2023-02-01T11:58:07.289Z,88.03
2023-02-01T12:00:59.251Z,87.67
2023-02-01T12:03:49.401Z,87.28
2023-02-01T12:06:30.686Z,87.84
2023-02-01T12:09:23.272Z,87.48
2023-02-01T12:12:01.842Z,87.62
2023-02-01T12:14:43.395Z,87.14
2023-02-01T12:17:34.058Z,87.11
2023-02-01T12:20:19.653Z,86.88
2023-02-01T12:22:59.307Z,87.43
2023-02-01T12:25:39.886Z,86.68
2023-02-01T12:28:24.060Z,86.59
2023-02-01T12:31:11.147Z,87.13
2023-02-01T12:33:52.527Z,86.71
2023-02-01T12:36:27.769Z,86.84
2023-02-01T12:39:05.195Z,87.12
2023-02-01T12:41:48.705Z,87.25
2023-02-01T12:44:26.817Z,86.42
2023-02-01T12:46:58.018Z,86.30
2023-02-01T12:49:33.736Z,86.92
2023-02-01T12:52:05.872Z,86.36
2023-02-01T12:54:42.116Z,86.83
2023-02-01T12:57:19.234Z,86.11
2023-02-01T12:59:52.741Z,86.03
2023-02-01T13:02:29.764Z,85.88
2023-02-01T13:05:04.652Z,85.56
2023-02-01T13:07:39.445Z,86.14
2023-02-01T13:10:16.429Z,86.17
2023-02-01T13:12:53.266Z,85.79
2023-02-01T13:15:24.317Z,85.93
2023-02-01T13:17:54.790Z,85.63
2023-02-01T13:20:29.377Z,84.81
2023-02-01T13:23:05.590Z,84.92
2023-02-01T13:25:39.137Z,84.61
2023-02-01T13:28:14.201Z,84.97
2023-02-01T13:30:58.844Z,85.26
2023-02-01T13:33:56.179Z,84.73
2023-02-01T13:36:46.363Z,84.45
2023-02-01T13:39:58.190Z,84.35
2023-02-01T13:42:28.411Z,85.03
2023-02-01T13:45:01.207Z,84.32
2023-02-01T13:47:34.042Z,85.13
2023-02-01T13:50:06.077Z,84.64
2023-02-01T13:52:39.341Z,84.50
2023-02-01T13:55:26.379Z,84.83
2023-02-01T13:58:03.630Z,84.86
2023-02-01T14:00:36.091Z,84.50
2023-02-01T14:03:17.205Z,85.16
2023-02-01T14:06:19.454Z,85.35
2023-02-01T14:09:03.028Z,84.93
2023-02-01T14:11:40.051Z,85.43
2023-02-01T14:14:43.654Z,84.86
2023-02-01T14:17:42.547Z,84.92
2023-02-01T14:20:54.810Z,84.98
2023-02-01T14:23:27.910Z,85.79
2023-02-01T14:26:08.740Z,84.73
2023-02-01T14:28:41.335Z,85.56
2023-02-01T14:31:42.043Z,85.21
2023-02-01T14:34:31.601Z,84.65
2023-02-01T14:37:01.498Z,84.84
2023-02-01T14:39:37.031Z,84.00
2023-02-01T14:42:16.163Z,83.90
2023-02-01T14:44:43.688Z,83.91
2023-02-01T14:47:32.125Z,84.04
2023-02-01T14:50:29.786Z,84.32
2023-02-01T14:53:12.840Z,84.09
2023-02-01T14:55:43.064Z,83.60
2023-02-01T14:58:20.226Z,83.69
2023-02-01T15:00:54.457Z,84.52
2023-02-01T15:03:35.362Z,83.60
2023-02-01T15:06:07.176Z,84.64
2023-02-01T15:08:40.301Z,84.04
2023-02-01T15:11:14.421Z,84.12
2023-02-01T15:13:41.809Z,84.99
2023-02-01T15:16:13.154Z,85.22
2023-02-01T15:18:40.912Z,84.92
2023-02-01T15:21:30.335Z,85.28
2023-02-01T15:24:12.314Z,85.67
2023-02-01T15:26:39.879Z,85.74
2023-02-01T15:29:12.292Z,85.41
2023-02-01T15:31:44.406Z,85.70
2023-02-01T15:34:12.722Z,85.99
2023-02-01T15:36:45.807Z,86.02
2023-02-01T15:39:32.139Z,86.06
2023-02-01T15:42:03.201Z,86.24
2023-02-01T15:44:35.464Z,86.02
2023-02-01T15:47:10.115Z,85.95
2023-02-01T15:49:40.386Z,86.03
2023-02-01T15:52:22.775Z,86.35
2023-02-01T15:54:53.950Z,86.09
2023-02-01T15:57:31.374Z,86.14
2023-02-01T16:00:01.288Z,86.56
2023-02-01T16:02:34.581Z,86.04
2023-02-01T16:05:03.041Z,86.18
2023-02-01T16:07:34.572Z,86.94
2023-02-01T16:10:19.787Z,86.94
2023-02-01T16:12:48.703Z,86.66
2023-02-01T16:15:16.526Z,86.36
2023-02-01T16:17:44.876Z,86.92
2023-02-01T16:20:13.646Z,87.14
2023-02-01T16:22:42.393Z,86.93
2023-02-01T16:25:12.404Z,86.58
2023-02-01T16:27:40.045Z,86.99
2023-02-01T16:30:10.961Z,87.06
2023-02-01T16:32:41.744Z,86.53
2023-02-01T16:35:20.849Z,86.52
2023-02-01T16:37:49.644Z,86.19
2023-02-01T16:40:18.671Z,86.60
2023-02-01T16:42:48.988Z,86.29
2023-02-01T16:45:16.837Z,86.46
2023-02-01T16:47:49.224Z,85.73
2023-02-01T16:50:23.167Z,85.45
2023-02-01T16:52:54.048Z,85.51
2023-02-01T16:55:23.179Z,84.91
2023-02-01T16:57:50.932Z,85.46
2023-02-01T17:00:25.457Z,84.42
2023-02-01T17:02:54.377Z,84.66
2023-02-01T17:05:22.483Z,84.17
2023-02-01T17:07:50.344Z,85.06
2023-02-01T17:10:32.682Z,84.30
2023-02-01T17:13:00.900Z,84.97
2023-02-01T17:15:34.952Z,84.87
2023-02-01T17:18:03.287Z,83.99
2023-02-01T17:20:35.141Z,84.15
2023-02-01T17:23:02.637Z,84.16
2023-02-01T17:25:32.160Z,84.01
2023-02-01T17:28:00.108Z,83.90
2023-02-01T17:30:27.595Z,84.15
2023-02-01T17:32:57.080Z,83.74
2023-02-01T17:35:26.477Z,83.16
2023-02-01T17:37:55.136Z,83.71
2023-02-01T17:40:23.319Z,84.31
2023-02-01T17:42:52.487Z,83.32
2023-02-01T17:45:34.691Z,84.14
2023-02-01T17:48:05.218Z,83.64
2023-02-01T17:50:35.523Z,83.96
2023-02-01T17:53:03.462Z,84.38
2023-02-01T17:55:32.229Z,83.65
2023-02-01T17:58:01.042Z,84.53
2023-02-01T18:00:28.211Z,84.20
2023-02-01T18:02:57.265Z,84.70
2023-02-01T18:05:29.199Z,84.58
2023-02-01T18:07:56.717Z,84.07
2023-02-01T18:10:24.199Z,84.23
2023-02-01T18:12:51.775Z,83.82
2023-02-01T18:15:22.410Z,83.93
2023-02-01T18:17:50.120Z,83.99
2023-02-01T18:20:19.337Z,84.71
2023-02-01T18:22:50.382Z,84.69
2023-02-01T18:25:25.231Z,84.15
2023-02-01T18:27:54.811Z,84.92
2023-02-01T18:30:28.640Z,84.44
2023-02-01T18:32:56.391Z,83.95
2023-02-01T18:35:25.953Z,85.02
2023-02-01T18:37:56.327Z,84.71
2023-02-01T18:40:30.573Z,84.29
2023-02-01T18:42:58.383Z,84.38
2023-02-01T18:45:31.828Z,84.96
2023-02-01T18:48:00.117Z,85.00
2023-02-01T18:50:28.948Z,86.21
2023-02-01T18:52:58.061Z,86.82
2023-02-01T18:55:27.034Z,86.92
2023-02-01T18:57:54.470Z,86.87
2023-02-01T19:00:22.662Z,87.12
2023-02-01T19:02:51.738Z,87.55
2023-02-01T19:05:19.396Z,87.69
2023-02-01T19:07:47.249Z,88.58
2023-02-01T19:10:16.789Z,88.38
2023-02-01T19:12:44.698Z,88.56
2023-02-01T19:15:15.526Z,89.29
2023-02-01T19:17:44.465Z,89.51
2023-02-01T19:20:14.895Z,89.08
2023-02-01T19:22:42.624Z,88.93
2023-02-01T19:25:14.865Z,89.08
2023-02-01T19:27:42.570Z,89.30
2023-02-01T19:30:12.870Z,89.55
2023-02-01T19:32:40.627Z,89.82
2023-02-01T19:35:10.365Z,90.08
2023-02-01T19:37:41.517Z,90.49
2023-02-01T19:40:10.621Z,89.93
2023-02-01T19:42:38.214Z,89.95
2023-02-01T19:45:06.754Z,90.92
2023-02-01T19:47:34.368Z,90.47
2023-02-01T19:50:01.704Z,90.99
2023-02-01T19:52:29.398Z,90.40
2023-02-01T19:54:57.974Z,91.16
2023-02-01T19:57:25.317Z,90.95
2023-02-01T19:59:52.534Z,90.53
2023-02-01T20:02:19.067Z,91.13
2023-02-01T20:04:46.453Z,90.96
2023-02-01T20:07:13.810Z,90.60
2023-02-01T20:09:41.879Z,91.34
2023-02-01T20:12:11.641Z,91.43
2023-02-01T20:14:39.661Z,91.19
2023-02-01T20:17:07.966Z,91.42
2023-02-01T20:19:35.248Z,91.64
2023-02-01T20:22:03.292Z,91.45
2023-02-01T20:24:30.763Z,90.91
2023-02-01T20:26:59.242Z,91.03
2023-02-01T20:29:28.038Z,91.27
2023-02-01T20:31:55.417Z,91.83
2023-02-01T20:34:22.883Z,91.56
2023-02-01T20:36:50.279Z,90.92
2023-02-01T20:39:17.837Z,91.19
2023-02-01T20:41:45.101Z,92.00
2023-02-01T20:44:12.568Z,91.50
2023-02-01T20:46:41.568Z,91.57
2023-02-01T20:49:09.003Z,91.17
2023-02-01T20:51:36.454Z,92.04
2023-02-01T20:54:03.832Z,91.23
2023-02-01T20:56:31.135Z,91.08
2023-02-01T20:59:03.305Z,91.91
2023-02-01T21:01:31.216Z,92.38
2023-02-01T21:03:59.936Z,91.95
2023-02-01T21:06:27.524Z,91.48
2023-02-01T21:08:54.892Z,91.31
2023-02-01T21:11:22.311Z,91.69
2023-02-01T21:13:52.638Z,91.34
2023-02-01T21:16:22.098Z,91.79
2023-02-01T21:18:53.776Z,92.20
2023-02-01T21:21:22.706Z,91.93
2023-02-01T21:23:50.248Z,92.22
2023-02-01T21:26:19.233Z,92.52
2023-02-01T21:28:46.788Z,91.69
2023-02-01T21:31:15.738Z,92.57
2023-02-01T21:33:43.179Z,91.87
2023-02-01T21:36:19.171Z,92.15
2023-02-01T21:38:51.007Z,91.79
2023-02-01T21:41:38.104Z,92.46
2023-02-01T21:44:05.799Z,92.10
2023-02-01T21:46:33.308Z,92.23
2023-02-01T21:49:05.391Z,91.82
2023-02-01T21:51:35.440Z,91.92
2023-02-01T21:54:04.612Z,92.46
2023-02-01T21:56:31.912Z,91.98
2023-02-01T21:58:59.576Z,91.77
2023-02-01T22:01:27.093Z,92.35
2023-02-01T22:03:54.781Z,92.71
2023-02-01T22:06:26.023Z,91.95
2023-02-01T22:08:53.703Z,92.29
2023-02-01T22:11:23.018Z,92.06
2023-02-01T22:13:50.409Z,92.67
2023-02-01T22:16:21.490Z,92.98
2023-02-01T22:18:49.949Z,92.98
2023-02-01T22:21:17.969Z,93.04
2023-02-01T22:23:45.670Z,92.18
2023-02-01T22:26:14.365Z,92.57
2023-02-01T22:28:43.904Z,92.80
2023-02-01T22:31:11.235Z,92.51
2023-02-01T22:33:38.622Z,92.53
2023-02-01T22:36:07.901Z,93.18
2023-02-01T22:38:36.359Z,92.57
2023-02-01T22:41:05.739Z,93.00
2023-02-01T22:43:35.018Z,92.91
2023-02-01T22:46:06.214Z,92.68
2023-02-01T22:48:36.698Z,93.13
2023-02-01T22:51:05.248Z,92.71
2023-02-01T22:53:33.211Z,92.59
2023-02-01T22:56:01.404Z,92.48
2023-02-01T22:58:28.913Z,92.46
2023-02-01T23:00:56.651Z,92.15
2023-02-01T23:03:25.280Z,92.50
2023-02-01T23:05:58.682Z,92.35
2023-02-01T23:08:26.101Z,92.64
2023-02-01T23:10:58.729Z,92.26
2023-02-01T23:13:26.094Z,91.82
2023-02-01T23:15:53.465Z,91.82
2023-02-01T23:18:21.142Z,92.50
2023-02-01T23:20:50.024Z,92.56
2023-02-01T23:23:17.263Z,92.74
2023-02-01T23:25:50.590Z,92.03
2023-02-01T23:28:18.095Z,92.72
2023-02-01T23:30:45.335Z,92.56
2023-02-01T23:33:12.659Z,91.61
2023-02-01T23:35:40.500Z,92.71
2023-02-01T23:38:09.300Z,92.20
2023-02-01T23:40:36.751Z,91.80
2023-02-01T23:43:22.797Z,92.01
2023-02-01T23:45:50.262Z,92.21
2023-02-01T23:48:17.503Z,92.35
2023-02-01T23:50:44.885Z,92.07
2023-02-01T23:53:13.700Z,91.40
2023-02-01T23:55:40.942Z,91.08
2023-02-01T23:58:08.294Z,90.97
